createdAt,value
2023-05-25T00:00:57.467Z,26.01
2023-05-25T00:01:46.004Z,26.01
2023-05-25T00:02:45.098Z,26.01
2023-05-25T00:03:45.104Z,26.00
2023-05-25T00:04:44.922Z,26.00
2023-05-25T00:05:44.946Z,26.00
2023-05-25T00:06:44.894Z,26.02
2023-05-25T00:07:44.844Z,26.01
2023-05-25T00:08:44.796Z,26.01
2023-05-25T00:09:44.802Z,26.02
2023-05-25T00:10:44.722Z,26.01
2023-05-25T00:11:44.716Z,26.01
2023-05-25T00:12:44.718Z,26.02
2023-05-25T00:13:44.664Z,25.98
2023-05-25T00:14:44.648Z,26.01
2023-05-25T00:15:44.738Z,26.01
2023-05-25T00:16:44.640Z,26.00
2023-05-25T00:17:44.665Z,26.00
2023-05-25T00:18:44.636Z,26.02
2023-05-25T00:19:44.650Z,26.02
2023-05-25T00:20:44.677Z,25.98
2023-05-25T00:21:44.665Z,26.00
2023-05-25T00:22:44.705Z,26.01
2023-05-25T00:23:44.751Z,26.00
2023-05-25T00:24:44.755Z,26.00
2023-05-25T00:25:44.953Z,26.00
2023-05-25T00:26:44.762Z,26.00
2023-05-25T00:27:44.777Z,26.01
2023-05-25T00:28:44.834Z,25.98
2023-05-25T00:29:44.812Z,26.00
2023-05-25T00:30:44.855Z,26.00
2023-05-25T00:31:44.832Z,26.01
2023-05-25T00:32:44.886Z,25.98
2023-05-25T00:33:44.902Z,25.98
2023-05-25T00:34:44.904Z,26.01
2023-05-25T00:35:45.168Z,26.00
2023-05-25T00:36:44.907Z,26.00
2023-05-25T00:37:44.949Z,26.00
2023-05-25T00:38:44.942Z,26.00
2023-05-25T00:39:44.946Z,25.98
2023-05-25T00:40:44.983Z,26.00
2023-05-25T00:41:44.980Z,25.98
2023-05-25T00:42:45.012Z,26.00
2023-05-25T00:43:45.060Z,26.01
2023-05-25T00:44:45.067Z,26.01
2023-05-25T00:45:45.220Z,25.98
2023-05-25T00:46:45.131Z,26.01
2023-05-25T00:47:45.113Z,26.01
2023-05-25T00:48:45.140Z,25.97
2023-05-25T00:49:45.154Z,26.00
2023-05-25T00:50:45.157Z,25.98
2023-05-25T00:51:45.174Z,26.00
2023-05-25T00:52:45.205Z,26.00
2023-05-25T00:53:45.223Z,26.00
2023-05-25T00:54:45.241Z,25.98
2023-05-25T00:55:45.390Z,25.98
2023-05-25T00:56:45.269Z,25.97
2023-05-25T00:57:45.326Z,25.98
2023-05-25T00:58:45.314Z,25.98
2023-05-25T00:59:45.346Z,25.95
2023-05-25T01:00:45.357Z,25.97
2023-05-25T01:01:45.390Z,25.97
2023-05-25T01:02:45.466Z,25.98
2023-05-25T01:03:45.402Z,25.97
2023-05-25T01:04:45.571Z,25.98
2023-05-25T01:05:45.549Z,25.97
2023-05-25T01:06:45.458Z,25.95
2023-05-25T01:07:45.453Z,25.98
2023-05-25T01:08:45.496Z,25.97
2023-05-25T01:09:45.529Z,25.98
2023-05-25T01:10:45.504Z,26.01
2023-05-25T01:11:45.556Z,25.97
2023-05-25T01:12:45.606Z,25.97
2023-05-25T01:13:45.555Z,25.95
2023-05-25T01:14:45.569Z,25.95
2023-05-25T01:15:45.804Z,25.98
2023-05-25T01:16:45.611Z,25.98
2023-05-25T01:17:45.641Z,25.95
2023-05-25T01:18:45.614Z,25.98
2023-05-25T01:19:51.935Z,25.98
2023-05-25T01:20:46.660Z,25.98
2023-05-25T01:21:45.557Z,25.97
2023-05-25T01:22:45.534Z,25.97
2023-05-25T01:23:45.498Z,26.00
2023-05-25T01:24:45.470Z,25.98
2023-05-25T01:25:45.587Z,25.97
2023-05-25T01:26:45.429Z,25.98
2023-05-25T01:27:46.339Z,25.97
2023-05-25T01:28:45.429Z,25.97
2023-05-25T01:29:45.408Z,25.95
2023-05-25T01:30:45.389Z,25.94
2023-05-25T01:31:45.421Z,25.98
2023-05-25T01:32:45.405Z,25.98
2023-05-25T01:33:45.375Z,25.98
2023-05-25T01:34:45.335Z,25.97
2023-05-25T01:35:45.492Z,25.95
2023-05-25T01:36:45.336Z,25.97
2023-05-25T01:37:45.353Z,25.95
2023-05-25T01:38:45.349Z,25.97
2023-05-25T01:39:45.386Z,25.95
2023-05-25T01:40:45.393Z,25.97
2023-05-25T01:41:45.424Z,25.97
2023-05-25T01:42:45.446Z,25.94
2023-05-25T01:43:45.478Z,25.95
2023-05-25T01:44:45.451Z,25.94
2023-05-25T01:45:45.718Z,25.95
2023-05-25T01:46:45.528Z,25.98
2023-05-25T01:47:45.568Z,25.95
2023-05-25T01:48:45.551Z,25.97
2023-05-25T01:49:45.616Z,25.97
2023-05-25T01:50:45.618Z,25.98
2023-05-25T01:51:45.666Z,25.95
2023-05-25T01:52:45.702Z,25.97
2023-05-25T01:53:45.678Z,25.95
2023-05-25T01:54:45.680Z,25.95
2023-05-25T01:55:45.892Z,25.98
2023-05-25T01:56:45.707Z,25.97
2023-05-25T01:57:45.738Z,25.97
2023-05-25T01:58:45.755Z,25.97
2023-05-25T01:59:45.747Z,25.95
2023-05-25T02:00:45.852Z,25.95
2023-05-25T02:01:45.910Z,25.98
2023-05-25T02:02:45.880Z,25.95
2023-05-25T02:03:45.866Z,25.95
2023-05-25T02:04:46.038Z,25.97
2023-05-25T02:05:46.047Z,25.92
2023-05-25T02:06:45.905Z,25.94
2023-05-25T02:07:45.932Z,25.97
2023-05-25T02:08:45.982Z,25.94
2023-05-25T02:09:45.981Z,25.95
2023-05-25T02:10:45.955Z,25.95
2023-05-25T02:11:45.998Z,25.94
2023-05-25T02:12:46.048Z,25.95
2023-05-25T02:13:46.155Z,25.95
2023-05-25T02:14:46.071Z,25.95
2023-05-25T02:15:46.363Z,25.97
2023-05-25T02:16:46.127Z,25.94
2023-05-25T02:17:46.208Z,25.95
2023-05-25T02:18:46.186Z,25.94
2023-05-25T02:19:46.160Z,25.94
2023-05-25T02:20:46.243Z,25.94
2023-05-25T02:21:46.221Z,25.94
2023-05-25T02:22:46.246Z,25.94
2023-05-25T02:23:46.277Z,25.94
2023-05-25T02:24:46.282Z,25.94
2023-05-25T02:25:46.555Z,25.94
2023-05-25T02:26:46.339Z,25.92
2023-05-25T02:27:46.377Z,25.94
2023-05-25T02:28:46.396Z,25.92
2023-05-25T02:29:46.425Z,25.92
2023-05-25T02:30:46.454Z,25.92
2023-05-25T02:31:46.516Z,25.92
2023-05-25T02:32:46.550Z,25.95
2023-05-25T02:33:46.518Z,25.94
2023-05-25T02:34:46.532Z,25.91
2023-05-25T02:35:46.636Z,25.92
2023-05-25T02:36:46.556Z,25.91
2023-05-25T02:37:48.281Z,25.91
2023-05-25T02:38:46.585Z,25.92
2023-05-25T02:39:46.594Z,25.91
2023-05-25T02:40:46.559Z,25.94
2023-05-25T02:41:46.542Z,25.92
2023-05-25T02:42:46.547Z,25.92
2023-05-25T02:43:46.504Z,25.92
2023-05-25T02:44:46.534Z,25.91
2023-05-25T02:45:46.478Z,25.92
2023-05-25T02:46:46.531Z,25.92
2023-05-25T02:47:46.494Z,25.91
2023-05-25T02:48:46.417Z,25.92
2023-05-25T02:49:46.393Z,25.92
2023-05-25T02:50:46.353Z,25.92
2023-05-25T02:51:46.306Z,25.92
2023-05-25T02:52:46.270Z,25.94
2023-05-25T02:53:46.256Z,25.92
2023-05-25T02:54:46.224Z,25.91
2023-05-25T02:55:46.457Z,25.94
2023-05-25T02:56:46.149Z,25.91
2023-05-25T02:57:46.142Z,25.92
2023-05-25T02:58:46.087Z,25.91
2023-05-25T02:59:46.078Z,25.90
2023-05-25T03:00:46.062Z,25.88
2023-05-25T03:01:46.026Z,25.92
2023-05-25T03:02:46.052Z,25.92
2023-05-25T03:03:45.966Z,25.91
2023-05-25T03:04:45.935Z,25.92
2023-05-25T03:05:46.037Z,25.91
2023-05-25T03:06:45.839Z,25.92
2023-05-25T03:07:45.858Z,25.91
2023-05-25T03:08:45.828Z,25.91
2023-05-25T03:09:45.805Z,25.92
2023-05-25T03:10:45.741Z,25.92
2023-05-25T03:11:45.790Z,25.92
2023-05-25T03:12:45.696Z,25.92
2023-05-25T03:13:45.714Z,25.91
2023-05-25T03:14:45.631Z,25.88
2023-05-25T03:15:45.789Z,25.90
2023-05-25T03:16:45.669Z,25.94
2023-05-25T03:17:45.645Z,25.92
2023-05-25T03:18:45.533Z,25.92
2023-05-25T03:19:45.505Z,25.92
2023-05-25T03:20:45.455Z,25.91
2023-05-25T03:21:45.451Z,25.91
2023-05-25T03:22:45.401Z,25.91
2023-05-25T03:23:45.419Z,25.91
2023-05-25T03:24:45.332Z,25.91
2023-05-25T03:25:45.549Z,25.91
2023-05-25T03:26:45.338Z,25.91
2023-05-25T03:27:45.371Z,25.90
2023-05-25T03:28:45.392Z,25.91
2023-05-25T03:29:45.401Z,25.88
2023-05-25T03:30:45.419Z,25.91
2023-05-25T03:31:45.530Z,25.91
2023-05-25T03:32:45.512Z,25.91
2023-05-25T03:33:45.505Z,25.91
2023-05-25T03:34:45.549Z,25.91
2023-05-25T03:35:45.756Z,25.91
2023-05-25T03:36:45.604Z,25.92
2023-05-25T03:37:45.628Z,25.90
2023-05-25T03:38:45.652Z,25.90
2023-05-25T03:39:45.669Z,25.91
2023-05-25T03:40:45.692Z,25.90
2023-05-25T03:41:45.750Z,25.91
2023-05-25T03:42:45.776Z,25.91
2023-05-25T03:43:45.809Z,25.90
2023-05-25T03:44:45.844Z,25.90
2023-05-25T03:45:45.979Z,25.91
2023-05-25T03:46:46.041Z,25.91
2023-05-25T03:47:45.945Z,25.91
2023-05-25T03:48:45.916Z,25.92
2023-05-25T03:49:45.959Z,25.90
2023-05-25T03:50:45.961Z,25.90
2023-05-25T03:51:46.001Z,25.90
2023-05-25T03:52:46.045Z,25.88
2023-05-25T03:53:46.073Z,25.92
2023-05-25T03:54:46.068Z,25.91
2023-05-25T03:55:46.288Z,25.91
2023-05-25T03:56:52.103Z,25.91
2023-05-25T03:57:47.098Z,25.88
2023-05-25T03:58:46.075Z,25.90
2023-05-25T03:59:46.071Z,25.92
2023-05-25T04:00:46.054Z,25.94
2023-05-25T04:01:46.008Z,25.91
2023-05-25T04:02:46.103Z,25.91
2023-05-25T04:03:46.135Z,25.94
2023-05-25T04:04:46.062Z,25.91
2023-05-25T04:05:46.171Z,25.90
2023-05-25T04:06:45.907Z,25.91
2023-05-25T04:07:45.866Z,25.92
2023-05-25T04:08:45.890Z,25.91
2023-05-25T04:09:45.799Z,25.91
2023-05-25T04:10:45.870Z,25.91
2023-05-25T04:11:45.904Z,25.92
2023-05-25T04:12:45.879Z,25.90
2023-05-25T04:13:45.874Z,25.91
2023-05-25T04:14:45.957Z,25.92
2023-05-25T04:15:46.177Z,25.94
2023-05-25T04:16:46.235Z,25.94
2023-05-25T04:17:46.030Z,25.91
2023-05-25T04:18:46.001Z,25.92
2023-05-25T04:19:46.011Z,25.92
2023-05-25T04:20:46.035Z,25.92
2023-05-25T04:21:46.053Z,25.92
2023-05-25T04:22:46.114Z,25.92
2023-05-25T04:23:46.109Z,25.95
2023-05-25T04:24:46.110Z,25.94
2023-05-25T04:25:46.313Z,25.94
2023-05-25T04:26:46.189Z,25.92
2023-05-25T04:27:46.208Z,25.97
2023-05-25T04:28:46.225Z,25.95
2023-05-25T04:29:46.245Z,25.94
2023-05-25T04:30:46.250Z,25.95
2023-05-25T04:31:46.323Z,25.94
2023-05-25T04:32:46.322Z,25.95
2023-05-25T04:33:46.337Z,25.92
2023-05-25T04:34:46.317Z,25.94
2023-05-25T04:35:46.514Z,25.94
2023-05-25T04:36:46.390Z,25.92
2023-05-25T04:37:46.400Z,25.92
2023-05-25T04:38:46.387Z,25.95
2023-05-25T04:39:46.421Z,25.94
2023-05-25T04:40:46.436Z,25.98
2023-05-25T04:41:46.443Z,25.97
2023-05-25T04:42:46.471Z,25.95
2023-05-25T04:44:04.577Z,25.95
2023-05-25T04:44:47.468Z,25.94
2023-05-25T04:45:46.642Z,25.95
2023-05-25T04:46:46.412Z,25.97
2023-05-25T04:47:46.392Z,25.97
2023-05-25T04:48:46.369Z,25.97
2023-05-25T04:49:46.317Z,25.97
2023-05-25T04:50:46.328Z,25.95
2023-05-25T04:51:46.279Z,25.98
2023-05-25T04:52:46.317Z,25.97
2023-05-25T04:53:46.207Z,25.97
2023-05-25T04:54:46.217Z,25.98
2023-05-25T04:55:46.547Z,25.97
2023-05-25T04:56:46.148Z,25.98
2023-05-25T04:57:46.134Z,25.98
2023-05-25T04:58:46.173Z,25.98
2023-05-25T04:59:46.214Z,26.00
2023-05-25T05:00:46.427Z,26.00
2023-05-25T05:01:46.342Z,25.98
2023-05-25T05:02:46.354Z,25.98
2023-05-25T05:03:46.398Z,26.01
2023-05-25T05:04:46.300Z,26.00
2023-05-25T05:05:46.423Z,26.04
2023-05-25T05:06:46.318Z,26.01
2023-05-25T05:07:46.334Z,26.02
2023-05-25T05:08:46.381Z,26.02
2023-05-25T05:09:46.410Z,26.02
2023-05-25T05:10:46.412Z,26.04
2023-05-25T05:11:46.357Z,26.04
2023-05-25T05:12:46.374Z,26.04
2023-05-25T05:13:46.409Z,26.04
2023-05-25T05:14:46.411Z,26.05
2023-05-25T05:15:46.566Z,26.07
2023-05-25T05:16:46.444Z,26.04
2023-05-25T05:17:46.509Z,26.07
2023-05-25T05:18:46.451Z,26.05
2023-05-25T05:19:46.495Z,26.04
2023-05-25T05:20:46.508Z,26.05
2023-05-25T05:21:46.542Z,26.07
2023-05-25T05:22:46.508Z,26.07
2023-05-25T05:23:46.516Z,26.08
2023-05-25T05:24:46.555Z,26.07
2023-05-25T05:25:46.656Z,26.05
2023-05-25T05:26:57.822Z,26.08
2023-05-25T05:27:47.559Z,26.07
2023-05-25T05:28:46.518Z,26.07
2023-05-25T05:29:46.499Z,26.08
2023-05-25T05:30:46.448Z,26.05
2023-05-25T05:31:46.541Z,26.08
2023-05-25T05:33:25.542Z,26.04
2023-05-25T05:34:25.400Z,26.05
2023-05-25T05:35:25.427Z,26.07
2023-05-25T05:36:25.386Z,26.08
2023-05-25T05:37:25.386Z,26.07
2023-05-25T05:38:25.368Z,26.08
2023-05-25T05:39:25.354Z,26.05
2023-05-25T05:40:25.341Z,26.08
2023-05-25T05:41:25.326Z,26.08
2023-05-25T05:42:25.350Z,26.11
2023-05-25T05:43:25.314Z,26.08
2023-05-25T05:44:28.740Z,26.09
2023-05-25T05:45:25.302Z,26.14
2023-05-25T05:46:25.312Z,26.17
2023-05-25T05:47:25.295Z,26.20
2023-05-25T05:48:25.254Z,26.21
2023-05-25T05:49:25.505Z,26.25
2023-05-25T05:50:25.237Z,26.28
2023-05-25T05:51:25.204Z,26.27
2023-05-25T05:52:25.201Z,26.32
2023-05-25T05:53:25.267Z,26.34
2023-05-25T05:54:25.214Z,26.36
2023-05-25T05:55:25.177Z,26.39
2023-05-25T05:56:25.169Z,26.41
2023-05-25T05:57:25.164Z,26.46
2023-05-25T05:58:25.146Z,26.48
2023-05-25T05:59:25.155Z,26.51
2023-05-25T06:00:25.102Z,26.55
2023-05-25T06:01:25.069Z,26.59
2023-05-25T06:02:25.139Z,26.59
2023-05-25T06:03:25.102Z,26.63
2023-05-25T06:04:25.037Z,26.69
2023-05-25T06:05:25.069Z,26.71
2023-05-25T06:06:25.006Z,26.72
2023-05-25T06:07:25.020Z,26.78
2023-05-25T06:08:25.000Z,26.76
2023-05-25T06:09:25.005Z,26.82
2023-05-25T06:10:24.962Z,26.79
2023-05-25T06:11:24.940Z,26.85
2023-05-25T06:12:24.914Z,26.85
2023-05-25T06:13:24.948Z,26.87
2023-05-25T06:14:27.483Z,26.90
2023-05-25T06:15:24.906Z,26.92
2023-05-25T06:16:24.908Z,26.93
2023-05-25T06:17:24.868Z,26.95
2023-05-25T06:18:24.790Z,26.97
2023-05-25T06:19:24.815Z,26.99
2023-05-25T06:20:24.796Z,27.00
2023-05-25T06:21:24.795Z,27.03
2023-05-25T06:22:24.705Z,27.06
2023-05-25T06:23:24.694Z,27.06
2023-05-25T06:24:24.721Z,27.07
2023-05-25T06:25:24.679Z,27.11
2023-05-25T06:26:24.665Z,27.11
2023-05-25T06:27:24.641Z,27.13
2023-05-25T06:28:24.622Z,27.11
2023-05-25T06:29:24.603Z,27.16
2023-05-25T06:30:24.559Z,27.18
2023-05-25T06:31:24.563Z,27.17
2023-05-25T06:32:24.558Z,27.17
2023-05-25T06:33:24.522Z,27.20
2023-05-25T06:34:24.483Z,27.20
2023-05-25T06:35:24.472Z,27.22
2023-05-25T06:36:24.467Z,27.23
2023-05-25T06:37:24.414Z,27.22
2023-05-25T06:38:24.398Z,27.20
2023-05-25T06:39:24.369Z,27.22
2023-05-25T06:40:24.369Z,27.24
2023-05-25T06:41:24.384Z,27.18
2023-05-25T06:42:24.322Z,27.20
2023-05-25T06:43:24.336Z,27.20
2023-05-25T06:44:24.318Z,27.22
2023-05-25T06:45:24.325Z,27.20
2023-05-25T06:46:24.300Z,27.18
2023-05-25T06:47:24.356Z,27.10
2023-05-25T06:48:24.249Z,27.09
2023-05-25T06:49:24.269Z,27.06
2023-05-25T06:50:24.274Z,27.02
2023-05-25T06:51:24.258Z,26.96
2023-05-25T06:52:24.254Z,26.99
2023-05-25T06:53:24.253Z,27.02
2023-05-25T06:54:24.264Z,27.03
2023-05-25T06:55:24.262Z,27.04
2023-05-25T06:56:24.202Z,27.07
2023-05-25T06:57:24.188Z,27.09
2023-05-25T06:58:24.164Z,27.10
2023-05-25T06:59:24.175Z,27.13
2023-05-25T07:00:24.163Z,27.11
2023-05-25T07:01:24.202Z,27.16
2023-05-25T07:02:24.322Z,27.18
2023-05-25T07:03:24.224Z,27.18
2023-05-25T07:04:24.245Z,27.22
2023-05-25T07:05:24.376Z,27.22
2023-05-25T07:06:24.245Z,27.24
2023-05-25T07:07:24.266Z,27.27
2023-05-25T07:08:24.261Z,27.29
2023-05-25T07:09:24.303Z,27.29
2023-05-25T07:10:24.302Z,27.30
2023-05-25T07:11:24.327Z,27.30
2023-05-25T07:12:24.308Z,27.33
2023-05-25T07:13:24.316Z,27.30
2023-05-25T07:14:24.330Z,27.33
2023-05-25T07:15:24.339Z,27.34
2023-05-25T07:16:24.354Z,27.36
2023-05-25T07:17:24.359Z,27.40
2023-05-25T07:18:24.306Z,27.38
2023-05-25T07:19:24.319Z,27.38
2023-05-25T07:20:24.383Z,27.40
2023-05-25T07:21:24.270Z,27.41
2023-05-25T07:22:24.276Z,27.41
2023-05-25T07:23:24.244Z,27.41
2023-05-25T07:24:24.249Z,27.41
2023-05-25T07:25:24.283Z,27.43
2023-05-25T07:26:24.219Z,27.46
2023-05-25T07:27:24.208Z,27.46
2023-05-25T07:28:24.173Z,27.47
2023-05-25T07:29:24.187Z,27.47
2023-05-25T07:30:24.218Z,27.50
2023-05-25T07:31:24.289Z,27.50
2023-05-25T07:32:24.221Z,27.50
2023-05-25T07:33:24.227Z,27.54
2023-05-25T07:34:25.754Z,27.53
2023-05-25T07:35:24.189Z,27.53
2023-05-25T07:36:24.221Z,27.54
2023-05-25T07:37:24.169Z,27.56
2023-05-25T07:38:24.170Z,27.53
2023-05-25T07:39:24.137Z,27.53
2023-05-25T07:40:24.154Z,27.54
2023-05-25T07:41:24.147Z,27.53
2023-05-25T07:42:24.129Z,27.58
2023-05-25T07:43:24.130Z,27.58
2023-05-25T07:44:24.090Z,27.61
2023-05-25T07:45:24.077Z,27.57
2023-05-25T07:46:24.122Z,27.57
2023-05-25T07:47:24.077Z,27.50
2023-05-25T07:48:24.042Z,27.46
2023-05-25T07:49:24.056Z,27.40
2023-05-25T07:50:24.025Z,27.36
2023-05-25T07:51:24.002Z,27.32
2023-05-25T07:52:24.017Z,27.23
2023-05-25T07:53:24.020Z,27.22
2023-05-25T07:54:23.991Z,27.16
2023-05-25T07:55:23.979Z,27.10
2023-05-25T07:56:24.001Z,27.07
2023-05-25T07:57:23.973Z,27.04
2023-05-25T07:58:23.994Z,27.03
2023-05-25T07:59:23.971Z,26.99
2023-05-25T08:00:23.995Z,27.00
2023-05-25T08:01:26.244Z,27.00
2023-05-25T08:02:24.190Z,26.99
2023-05-25T08:03:39.793Z,26.96
2023-05-25T08:04:25.132Z,26.97
2023-05-25T08:05:23.980Z,26.95
2023-05-25T08:06:23.972Z,26.96
2023-05-25T08:07:24.010Z,26.95
2023-05-25T08:08:23.995Z,26.92
2023-05-25T08:09:24.015Z,26.92
2023-05-25T08:10:23.973Z,26.89
2023-05-25T08:11:23.996Z,26.85
2023-05-25T08:12:38.398Z,26.86
2023-05-25T08:13:24.996Z,26.83
2023-05-25T08:14:24.003Z,26.82
2023-05-25T08:15:23.985Z,26.81
2023-05-25T08:16:24.090Z,26.76
2023-05-25T08:17:24.073Z,26.75
2023-05-25T08:18:23.983Z,26.73
2023-05-25T08:19:24.068Z,26.73
2023-05-25T08:20:23.995Z,26.72
2023-05-25T08:21:23.987Z,26.68
2023-05-25T08:22:24.010Z,26.69
2023-05-25T08:23:23.998Z,26.66
2023-05-25T08:24:24.038Z,26.68
2023-05-25T08:25:24.083Z,26.66
2023-05-25T08:26:41.236Z,26.65
2023-05-25T08:27:25.100Z,26.62
2023-05-25T08:28:24.128Z,26.62
2023-05-25T08:29:24.115Z,26.63
2023-05-25T08:30:24.101Z,26.59
2023-05-25T08:31:24.198Z,26.58
2023-05-25T08:32:24.176Z,26.60
2023-05-25T08:33:25.880Z,26.59
2023-05-25T08:34:24.081Z,26.59
2023-05-25T08:35:24.057Z,26.58
2023-05-25T08:36:24.085Z,26.56
2023-05-25T08:37:24.080Z,26.56
2023-05-25T08:38:24.097Z,26.56
2023-05-25T08:39:24.122Z,26.56
2023-05-25T08:40:24.070Z,26.53
2023-05-25T08:41:24.100Z,26.58
2023-05-25T08:42:24.116Z,26.56
2023-05-25T08:43:24.097Z,26.58
2023-05-25T08:44:24.124Z,26.62
2023-05-25T08:45:35.300Z,26.59
2023-05-25T08:46:25.088Z,26.60
2023-05-25T08:47:24.077Z,26.63
2023-05-25T08:48:39.553Z,26.66
2023-05-25T08:49:25.118Z,26.68
2023-05-25T08:50:24.047Z,26.68
2023-05-25T08:51:24.063Z,26.66
2023-05-25T08:52:24.094Z,26.68
2023-05-25T08:53:24.058Z,26.72
2023-05-25T08:54:24.079Z,26.72
2023-05-25T08:55:24.057Z,26.71
2023-05-25T08:56:24.075Z,26.68
2023-05-25T08:57:24.029Z,26.66
2023-05-25T08:58:24.033Z,26.69
2023-05-25T08:59:24.106Z,26.72
2023-05-25T09:00:24.139Z,26.75
2023-05-25T09:01:24.449Z,26.79
2023-05-25T09:02:24.403Z,26.83
2023-05-25T09:03:24.409Z,26.82
2023-05-25T09:04:24.376Z,26.87
2023-05-25T09:05:24.425Z,26.90
2023-05-25T09:06:24.471Z,26.92
2023-05-25T09:07:24.521Z,26.96
2023-05-25T09:08:24.560Z,27.02
2023-05-25T09:09:24.602Z,27.00
2023-05-25T09:10:24.659Z,27.00
2023-05-25T09:11:37.337Z,27.00
2023-05-25T09:12:25.652Z,26.99
2023-05-25T09:13:24.642Z,27.02
2023-05-25T09:14:24.658Z,27.04
2023-05-25T09:15:24.642Z,27.11
2023-05-25T09:16:24.682Z,27.11
2023-05-25T09:17:24.624Z,27.16
2023-05-25T09:18:24.649Z,27.14
2023-05-25T09:19:24.586Z,27.18
2023-05-25T09:20:24.616Z,27.22
2023-05-25T09:21:24.573Z,27.23
2023-05-25T09:22:24.583Z,27.24
2023-05-25T09:23:24.579Z,27.27
2023-05-25T09:24:24.611Z,27.29
2023-05-25T09:25:24.567Z,27.32
2023-05-25T09:26:24.517Z,27.37
2023-05-25T09:27:24.527Z,27.37
2023-05-25T09:28:27.010Z,27.38
2023-05-25T09:29:24.484Z,27.40
2023-05-25T09:30:24.445Z,27.43
2023-05-25T09:31:24.486Z,27.44
2023-05-25T09:32:24.579Z,27.44
2023-05-25T09:33:24.375Z,27.47
2023-05-25T09:34:24.388Z,27.47
2023-05-25T09:35:24.388Z,27.48
2023-05-25T09:36:24.405Z,27.50
2023-05-25T09:37:24.473Z,27.51
2023-05-25T09:38:24.599Z,27.53
2023-05-25T09:39:24.296Z,27.56
2023-05-25T09:40:24.220Z,27.57
2023-05-25T09:41:24.221Z,27.58
2023-05-25T09:42:24.185Z,27.56
2023-05-25T09:43:39.530Z,27.58
2023-05-25T09:44:25.128Z,27.57
2023-05-25T09:45:24.152Z,27.53
2023-05-25T09:46:24.213Z,27.53
2023-05-25T09:47:24.090Z,27.50
2023-05-25T09:48:24.058Z,27.51
2023-05-25T09:49:24.024Z,27.51
2023-05-25T09:50:24.709Z,27.48
2023-05-25T09:51:23.979Z,27.48
2023-05-25T09:52:23.954Z,27.50
2023-05-25T09:53:23.957Z,27.51
2023-05-25T09:54:23.905Z,27.48
2023-05-25T09:55:23.875Z,27.48
2023-05-25T09:56:23.857Z,27.48
2023-05-25T09:57:23.823Z,27.50
2023-05-25T09:58:23.805Z,27.48
2023-05-25T09:59:23.755Z,27.50
2023-05-25T10:00:23.716Z,27.47
2023-05-25T10:01:23.729Z,27.47
2023-05-25T10:02:23.773Z,27.47
2023-05-25T10:03:23.726Z,27.50
2023-05-25T10:04:23.770Z,27.50
2023-05-25T10:05:23.770Z,27.47
2023-05-25T10:06:23.786Z,27.48
2023-05-25T10:07:23.788Z,27.47
2023-05-25T10:08:23.918Z,27.47
2023-05-25T10:09:23.884Z,27.50
2023-05-25T10:10:23.807Z,27.50
2023-05-25T10:11:23.826Z,27.50
2023-05-25T10:12:23.793Z,27.53
2023-05-25T10:13:23.833Z,27.53
2023-05-25T10:14:24.610Z,27.54
2023-05-25T10:15:23.838Z,27.58
2023-05-25T10:16:23.864Z,27.57
2023-05-25T10:17:23.896Z,27.57
2023-05-25T10:18:23.817Z,27.58
2023-05-25T10:19:23.771Z,27.60
2023-05-25T10:20:24.959Z,27.62
2023-05-25T10:21:23.851Z,27.61
2023-05-25T10:22:23.747Z,27.64
2023-05-25T10:23:23.739Z,27.65
2023-05-25T10:24:23.750Z,27.62
2023-05-25T10:25:23.721Z,27.65
2023-05-25T10:26:23.788Z,27.68
2023-05-25T10:27:27.549Z,27.67
2023-05-25T10:28:23.730Z,27.67
2023-05-25T10:29:23.701Z,27.68
2023-05-25T10:30:23.672Z,27.68
2023-05-25T10:31:23.690Z,27.68
2023-05-25T10:32:23.715Z,27.68
2023-05-25T10:33:23.647Z,27.68
2023-05-25T10:34:23.640Z,27.68
2023-05-25T10:35:23.620Z,27.68
2023-05-25T10:36:23.620Z,27.69
2023-05-25T10:37:23.641Z,27.69
2023-05-25T10:38:23.590Z,27.69
2023-05-25T10:39:23.612Z,27.69
2023-05-25T10:40:23.583Z,27.74
2023-05-25T10:41:23.600Z,27.69
2023-05-25T10:42:23.552Z,27.69
2023-05-25T10:43:23.565Z,27.69
2023-05-25T10:44:23.558Z,27.72
2023-05-25T10:45:23.615Z,27.71
2023-05-25T10:46:23.697Z,27.68
2023-05-25T10:47:23.634Z,27.65
2023-05-25T10:48:23.635Z,27.65
2023-05-25T10:49:23.706Z,27.67
2023-05-25T10:50:23.538Z,27.65
2023-05-25T10:51:25.282Z,27.64
2023-05-25T10:52:23.482Z,27.62
2023-05-25T10:53:23.471Z,27.62
2023-05-25T10:54:23.486Z,27.60
2023-05-25T10:55:23.439Z,27.62
2023-05-25T10:56:23.466Z,27.62
2023-05-25T10:57:23.443Z,27.61
2023-05-25T10:58:23.420Z,27.61
2023-05-25T10:59:23.432Z,27.62
2023-05-25T11:00:23.448Z,27.60
2023-05-25T11:01:23.460Z,27.61
2023-05-25T11:02:23.770Z,27.62
2023-05-25T11:03:23.361Z,27.62
2023-05-25T11:04:23.405Z,27.58
2023-05-25T11:05:23.364Z,27.60
2023-05-25T11:06:23.372Z,27.62
2023-05-25T11:07:23.362Z,27.60
2023-05-25T11:08:23.344Z,27.61
2023-05-25T11:09:23.339Z,27.61
2023-05-25T11:10:23.322Z,27.60
2023-05-25T11:11:23.322Z,27.61
2023-05-25T11:12:23.332Z,27.61
2023-05-25T11:13:23.272Z,27.64
2023-05-25T11:14:23.282Z,27.62
2023-05-25T11:15:23.276Z,27.60
2023-05-25T11:16:23.293Z,27.61
2023-05-25T11:17:23.340Z,27.61
2023-05-25T11:18:23.257Z,27.61
2023-05-25T11:19:23.267Z,27.60
2023-05-25T11:20:23.320Z,27.61
2023-05-25T11:21:23.232Z,27.61
2023-05-25T11:22:23.243Z,27.64
2023-05-25T11:23:23.244Z,27.62
2023-05-25T11:24:23.212Z,27.61
2023-05-25T11:25:23.171Z,27.62
2023-05-25T11:26:23.144Z,27.60
2023-05-25T11:27:23.159Z,27.64
2023-05-25T11:28:23.136Z,27.58
2023-05-25T11:29:23.146Z,27.57
2023-05-25T11:30:23.104Z,27.57
2023-05-25T11:31:23.213Z,27.56
2023-05-25T11:32:23.261Z,27.56
2023-05-25T11:33:23.104Z,27.57
2023-05-25T11:34:23.090Z,27.58
2023-05-25T11:35:23.091Z,27.60
2023-05-25T11:36:23.047Z,27.60
2023-05-25T11:37:23.035Z,27.57
2023-05-25T11:38:23.087Z,27.58
2023-05-25T11:39:23.417Z,27.56
2023-05-25T11:40:22.997Z,27.58
2023-05-25T11:41:23.024Z,27.61
2023-05-25T11:42:23.004Z,27.58
2023-05-25T11:43:22.998Z,27.61
2023-05-25T11:44:23.005Z,27.58
2023-05-25T11:45:22.963Z,27.58
2023-05-25T11:46:23.022Z,27.60
2023-05-25T11:47:23.199Z,27.61
2023-05-25T11:48:22.999Z,27.60
2023-05-25T11:49:22.939Z,27.60
2023-05-25T11:50:22.888Z,27.60
2023-05-25T11:51:22.895Z,27.60
2023-05-25T11:52:22.920Z,27.61
2023-05-25T11:53:22.857Z,27.60
2023-05-25T11:54:22.883Z,27.60
2023-05-25T11:55:22.848Z,27.62
2023-05-25T11:56:34.289Z,27.61
2023-05-25T11:57:23.818Z,27.61
2023-05-25T11:58:22.777Z,27.62
2023-05-25T11:59:24.045Z,27.62
2023-05-25T12:00:22.722Z,27.65
2023-05-25T12:01:22.700Z,27.64
2023-05-25T12:02:22.698Z,27.65
2023-05-25T12:03:22.702Z,27.64
2023-05-25T12:04:24.169Z,27.62
2023-05-25T12:05:22.614Z,27.65
2023-05-25T12:06:22.559Z,27.64
2023-05-25T12:07:22.578Z,27.65
2023-05-25T12:08:22.494Z,27.65
2023-05-25T12:09:22.556Z,27.62
2023-05-25T12:10:22.492Z,27.64
2023-05-25T12:11:22.452Z,27.68
2023-05-25T12:12:22.449Z,27.65
2023-05-25T12:13:22.401Z,27.65
2023-05-25T12:14:22.348Z,27.65
2023-05-25T12:15:22.325Z,27.64
2023-05-25T12:16:22.336Z,27.67
2023-05-25T12:17:22.466Z,27.65
2023-05-25T12:18:22.273Z,27.65
2023-05-25T12:19:22.228Z,27.68
2023-05-25T12:20:22.292Z,27.65
2023-05-25T12:21:22.189Z,27.65
2023-05-25T12:22:22.160Z,27.64
2023-05-25T12:23:22.169Z,27.65
2023-05-25T12:24:22.127Z,27.68
2023-05-25T12:25:22.155Z,27.67
2023-05-25T12:26:22.082Z,27.68
2023-05-25T12:27:22.068Z,27.65
2023-05-25T12:28:22.038Z,27.64
2023-05-25T12:29:22.022Z,27.65
2023-05-25T12:30:21.982Z,27.67
2023-05-25T12:31:22.029Z,27.67
2023-05-25T12:32:21.965Z,27.67
2023-05-25T12:33:21.910Z,27.67
2023-05-25T12:34:21.893Z,27.67
2023-05-25T12:35:21.871Z,27.68
2023-05-25T12:36:21.844Z,27.68
2023-05-25T12:37:21.814Z,27.68
2023-05-25T12:38:21.954Z,27.67
2023-05-25T12:39:23.815Z,27.69
2023-05-25T12:40:22.032Z,27.68
2023-05-25T12:41:22.015Z,27.69
2023-05-25T12:42:22.036Z,27.68
2023-05-25T12:43:21.964Z,27.68
2023-05-25T12:44:21.981Z,27.68
2023-05-25T12:45:21.930Z,27.68
2023-05-25T12:46:21.927Z,27.69
2023-05-25T12:47:21.907Z,27.69
2023-05-25T12:48:21.902Z,27.69
2023-05-25T12:49:21.892Z,27.71
2023-05-25T12:50:21.900Z,27.69
2023-05-25T12:51:21.891Z,27.69
2023-05-25T12:52:21.893Z,27.69
2023-05-25T12:53:21.917Z,27.71